sensor_id;sensor_type;location;lat;lon;timestamp;P1;durP1;ratioP1;P2;durP2;ratioP2
37641;SDS011;23486;51.956;5.888;2023-12-07T00:00:03;10.00;;;5.65;;
37641;SDS011;23486;51.956;5.888;2023-12-07T00:02:29;12.82;;;5.70;;
37641;SDS011;23486;51.956;5.888;2023-12-07T00:04:55;13.60;;;7.30;;
37641;SDS011;23486;51.956;5.888;2023-12-07T00:07:20;14.93;;;6.82;;
37641;SDS011;23486;51.956;5.888;2023-12-07T00:09:46;13.05;;;6.97;;
37641;SDS011;23486;51.956;5.888;2023-12-07T00:12:12;15.15;;;7.38;;
37641;SDS011;23486;51.956;5.888;2023-12-07T00:14:37;12.10;;;6.93;;
37641;SDS011;23486;51.956;5.888;2023-12-07T00:17:03;13.15;;;6.93;;
37641;SDS011;23486;51.956;5.888;2023-12-07T00:19:28;17.98;;;6.88;;
37641;SDS011;23486;51.956;5.888;2023-12-07T00:21:54;12.75;;;7.28;;
37641;SDS011;23486;51.956;5.888;2023-12-07T00:24:20;14.07;;;6.43;;
37641;SDS011;23486;51.956;5.888;2023-12-07T00:26:48;14.30;;;7.97;;
37641;SDS011;23486;51.956;5.888;2023-12-07T00:29:14;13.02;;;6.68;;
37641;SDS011;23486;51.956;5.888;2023-12-07T00:31:40;12.38;;;6.78;;
37641;SDS011;23486;51.956;5.888;2023-12-07T00:34:06;12.15;;;7.10;;
37641;SDS011;23486;51.956;5.888;2023-12-07T00:36:31;12.45;;;6.97;;
37641;SDS011;23486;51.956;5.888;2023-12-07T00:38:57;12.38;;;7.05;;
37641;SDS011;23486;51.956;5.888;2023-12-07T00:41:23;14.48;;;7.07;;
37641;SDS011;23486;51.956;5.888;2023-12-07T00:43:48;12.07;;;6.70;;
37641;SDS011;23486;51.956;5.888;2023-12-07T00:46:14;12.10;;;7.53;;
37641;SDS011;23486;51.956;5.888;2023-12-07T00:48:39;16.90;;;7.13;;
37641;SDS011;23486;51.956;5.888;2023-12-07T00:51:05;13.55;;;8.75;;
37641;SDS011;23486;51.956;5.888;2023-12-07T00:53:33;11.65;;;7.47;;
37641;SDS011;23486;51.956;5.888;2023-12-07T00:55:59;10.68;;;6.30;;
37641;SDS011;23486;51.956;5.888;2023-12-07T00:58:24;12.48;;;6.82;;
37641;SDS011;23486;51.956;5.888;2023-12-07T01:00:51;12.68;;;6.70;;
37641;SDS011;23486;51.956;5.888;2023-12-07T01:03:16;12.55;;;6.78;;
37641;SDS011;23486;51.956;5.888;2023-12-07T01:05:42;13.57;;;6.25;;
37641;SDS011;23486;51.956;5.888;2023-12-07T01:08:07;12.85;;;6.68;;
37641;SDS011;23486;51.956;5.888;2023-12-07T01:10:33;12.45;;;6.70;;
37641;SDS011;23486;51.956;5.888;2023-12-07T01:12:58;11.15;;;6.63;;
37641;SDS011;23486;51.956;5.888;2023-12-07T01:15:24;12.23;;;6.97;;
37641;SDS011;23486;51.956;5.888;2023-12-07T01:17:49;12.50;;;7.90;;
37641;SDS011;23486;51.956;5.888;2023-12-07T01:20:15;13.20;;;7.10;;
37641;SDS011;23486;51.956;5.888;2023-12-07T01:22:42;11.00;;;6.18;;
37641;SDS011;23486;51.956;5.888;2023-12-07T01:25:07;13.32;;;7.55;;
37641;SDS011;23486;51.956;5.888;2023-12-07T01:27:33;11.57;;;6.32;;
37641;SDS011;23486;51.956;5.888;2023-12-07T01:29:59;12.73;;;6.18;;
37641;SDS011;23486;51.956;5.888;2023-12-07T01:32:25;11.95;;;6.75;;
37641;SDS011;23486;51.956;5.888;2023-12-07T01:34:50;12.15;;;6.55;;
37641;SDS011;23486;51.956;5.888;2023-12-07T01:37:16;11.77;;;6.35;;
37641;SDS011;23486;51.956;5.888;2023-12-07T01:39:41;13.02;;;7.80;;
37641;SDS011;23486;51.956;5.888;2023-12-07T01:42:08;13.73;;;7.85;;
37641;SDS011;23486;51.956;5.888;2023-12-07T01:44:34;17.23;;;8.18;;
37641;SDS011;23486;51.956;5.888;2023-12-07T01:47:06;15.95;;;9.18;;
37641;SDS011;23486;51.956;5.888;2023-12-07T01:49:33;13.27;;;7.63;;
37641;SDS011;23486;51.956;5.888;2023-12-07T01:52:00;12.70;;;7.75;;
37641;SDS011;23486;51.956;5.888;2023-12-07T01:54:26;13.70;;;7.55;;
37641;SDS011;23486;51.956;5.888;2023-12-07T01:56:51;21.15;;;9.35;;
37641;SDS011;23486;51.956;5.888;2023-12-07T01:59:17;20.48;;;9.02;;
37641;SDS011;23486;51.956;5.888;2023-12-07T02:01:43;23.60;;;10.63;;
37641;SDS011;23486;51.956;5.888;2023-12-07T02:04:09;21.33;;;8.95;;
37641;SDS011;23486;51.956;5.888;2023-12-07T02:06:35;17.52;;;8.48;;
37641;SDS011;23486;51.956;5.888;2023-12-07T02:09:01;20.88;;;10.70;;
37641;SDS011;23486;51.956;5.888;2023-12-07T02:11:27;19.52;;;9.50;;
37641;SDS011;23486;51.956;5.888;2023-12-07T02:13:53;21.08;;;9.68;;
37641;SDS011;23486;51.956;5.888;2023-12-07T02:16:35;23.52;;;10.45;;
37641;SDS011;23486;51.956;5.888;2023-12-07T02:19:17;21.70;;;10.65;;
37641;SDS011;23486;51.956;5.888;2023-12-07T02:21:55;28.70;;;11.23;;
37641;SDS011;23486;51.956;5.888;2023-12-07T02:24:24;25.67;;;10.90;;
37641;SDS011;23486;51.956;5.888;2023-12-07T02:26:52;31.40;;;10.90;;
37641;SDS011;23486;51.956;5.888;2023-12-07T02:29:18;29.45;;;9.60;;
37641;SDS011;23486;51.956;5.888;2023-12-07T02:31:44;29.02;;;10.77;;
37641;SDS011;23486;51.956;5.888;2023-12-07T02:34:10;19.45;;;9.60;;
37641;SDS011;23486;51.956;5.888;2023-12-07T02:36:36;23.23;;;9.45;;
37641;SDS011;23486;51.956;5.888;2023-12-07T02:39:04;22.67;;;10.70;;
37641;SDS011;23486;51.956;5.888;2023-12-07T02:41:32;20.08;;;9.02;;
37641;SDS011;23486;51.956;5.888;2023-12-07T02:43:58;26.23;;;11.52;;
37641;SDS011;23486;51.956;5.888;2023-12-07T02:46:24;19.42;;;9.40;;
37641;SDS011;23486;51.956;5.888;2023-12-07T02:48:50;19.42;;;10.27;;
37641;SDS011;23486;51.956;5.888;2023-12-07T02:51:16;19.75;;;9.25;;
37641;SDS011;23486;51.956;5.888;2023-12-07T02:53:41;19.02;;;9.30;;
37641;SDS011;23486;51.956;5.888;2023-12-07T02:56:07;22.95;;;11.48;;
37641;SDS011;23486;51.956;5.888;2023-12-07T02:58:33;19.73;;;9.63;;
37641;SDS011;23486;51.956;5.888;2023-12-07T03:00:58;20.88;;;9.55;;
37641;SDS011;23486;51.956;5.888;2023-12-07T03:03:24;20.13;;;10.25;;
37641;SDS011;23486;51.956;5.888;2023-12-07T03:05:50;18.48;;;10.52;;
37641;SDS011;23486;51.956;5.888;2023-12-07T03:08:15;21.58;;;9.95;;
37641;SDS011;23486;51.956;5.888;2023-12-07T03:10:41;21.17;;;9.80;;
37641;SDS011;23486;51.956;5.888;2023-12-07T03:13:07;23.85;;;12.43;;
37641;SDS011;23486;51.956;5.888;2023-12-07T03:15:32;19.95;;;10.02;;
37641;SDS011;23486;51.956;5.888;2023-12-07T03:17:58;18.42;;;9.77;;
37641;SDS011;23486;51.956;5.888;2023-12-07T03:20:23;22.77;;;8.73;;
37641;SDS011;23486;51.956;5.888;2023-12-07T03:22:49;23.40;;;10.75;;
37641;SDS011;23486;51.956;5.888;2023-12-07T03:25:14;19.55;;;9.35;;
37641;SDS011;23486;51.956;5.888;2023-12-07T03:27:40;25.52;;;11.25;;
37641;SDS011;23486;51.956;5.888;2023-12-07T03:30:06;23.67;;;10.73;;
37641;SDS011;23486;51.956;5.888;2023-12-07T03:32:32;20.65;;;10.75;;
37641;SDS011;23486;51.956;5.888;2023-12-07T03:34:57;20.70;;;11.30;;
37641;SDS011;23486;51.956;5.888;2023-12-07T03:37:23;24.88;;;12.57;;
37641;SDS011;23486;51.956;5.888;2023-12-07T03:39:49;22.90;;;12.00;;
37641;SDS011;23486;51.956;5.888;2023-12-07T03:42:14;23.48;;;11.45;;
37641;SDS011;23486;51.956;5.888;2023-12-07T03:44:40;20.65;;;11.60;;
37641;SDS011;23486;51.956;5.888;2023-12-07T03:47:05;20.98;;;10.73;;
37641;SDS011;23486;51.956;5.888;2023-12-07T03:49:31;20.48;;;11.10;;
37641;SDS011;23486;51.956;5.888;2023-12-07T03:51:56;19.63;;;11.15;;
37641;SDS011;23486;51.956;5.888;2023-12-07T03:54:22;19.90;;;10.95;;
37641;SDS011;23486;51.956;5.888;2023-12-07T03:56:47;21.08;;;11.52;;
37641;SDS011;23486;51.956;5.888;2023-12-07T03:59:13;18.10;;;9.90;;
37641;SDS011;23486;51.956;5.888;2023-12-07T04:01:40;16.90;;;9.90;;
37641;SDS011;23486;51.956;5.888;2023-12-07T04:04:05;18.95;;;11.13;;
37641;SDS011;23486;51.956;5.888;2023-12-07T04:06:31;18.88;;;11.50;;
37641;SDS011;23486;51.956;5.888;2023-12-07T04:08:57;18.60;;;10.32;;
37641;SDS011;23486;51.956;5.888;2023-12-07T04:11:23;17.67;;;9.88;;
37641;SDS011;23486;51.956;5.888;2023-12-07T04:13:48;15.27;;;8.88;;
37641;SDS011;23486;51.956;5.888;2023-12-07T04:16:14;19.13;;;9.40;;
37641;SDS011;23486;51.956;5.888;2023-12-07T04:18:40;18.70;;;9.27;;
37641;SDS011;23486;51.956;5.888;2023-12-07T04:21:05;15.18;;;8.65;;
37641;SDS011;23486;51.956;5.888;2023-12-07T04:23:31;15.55;;;8.38;;
37641;SDS011;23486;51.956;5.888;2023-12-07T04:25:57;14.95;;;8.02;;
37641;SDS011;23486;51.956;5.888;2023-12-07T04:28:22;13.60;;;7.72;;
37641;SDS011;23486;51.956;5.888;2023-12-07T04:30:48;14.10;;;8.32;;
37641;SDS011;23486;51.956;5.888;2023-12-07T04:33:13;17.48;;;9.75;;
37641;SDS011;23486;51.956;5.888;2023-12-07T04:35:39;14.93;;;8.70;;
37641;SDS011;23486;51.956;5.888;2023-12-07T04:38:05;14.40;;;8.45;;
37641;SDS011;23486;51.956;5.888;2023-12-07T04:40:30;17.35;;;9.98;;
37641;SDS011;23486;51.956;5.888;2023-12-07T04:42:56;16.77;;;9.82;;
37641;SDS011;23486;51.956;5.888;2023-12-07T04:45:21;18.63;;;9.60;;
37641;SDS011;23486;51.956;5.888;2023-12-07T04:47:47;17.98;;;10.05;;
37641;SDS011;23486;51.956;5.888;2023-12-07T04:50:13;17.25;;;9.70;;
37641;SDS011;23486;51.956;5.888;2023-12-07T04:52:38;16.90;;;9.50;;
37641;SDS011;23486;51.956;5.888;2023-12-07T04:55:05;18.10;;;9.52;;
37641;SDS011;23486;51.956;5.888;2023-12-07T04:57:31;18.55;;;10.88;;
37641;SDS011;23486;51.956;5.888;2023-12-07T05:00:00;19.55;;;9.95;;
37641;SDS011;23486;51.956;5.888;2023-12-07T05:02:25;22.92;;;11.45;;
37641;SDS011;23486;51.956;5.888;2023-12-07T05:04:52;23.45;;;12.23;;
37641;SDS011;23486;51.956;5.888;2023-12-07T05:07:19;19.95;;;11.10;;
37641;SDS011;23486;51.956;5.888;2023-12-07T05:09:45;20.65;;;11.50;;
37641;SDS011;23486;51.956;5.888;2023-12-07T05:12:11;32.55;;;13.65;;
37641;SDS011;23486;51.956;5.888;2023-12-07T05:14:36;31.30;;;14.00;;
37641;SDS011;23486;51.956;5.888;2023-12-07T05:17:02;35.50;;;14.82;;
37641;SDS011;23486;51.956;5.888;2023-12-07T05:19:27;35.58;;;14.35;;
37641;SDS011;23486;51.956;5.888;2023-12-07T05:21:53;38.58;;;15.15;;
37641;SDS011;23486;51.956;5.888;2023-12-07T05:24:19;45.72;;;16.10;;
37641;SDS011;23486;51.956;5.888;2023-12-07T05:26:45;38.22;;;15.85;;
37641;SDS011;23486;51.956;5.888;2023-12-07T05:29:11;33.25;;;16.23;;
37641;SDS011;23486;51.956;5.888;2023-12-07T05:31:37;45.45;;;17.50;;
37641;SDS011;23486;51.956;5.888;2023-12-07T05:34:03;33.78;;;16.13;;
37641;SDS011;23486;51.956;5.888;2023-12-07T05:36:28;37.17;;;18.33;;
37641;SDS011;23486;51.956;5.888;2023-12-07T05:38:54;61.42;;;18.27;;
37641;SDS011;23486;51.956;5.888;2023-12-07T05:41:20;51.63;;;19.98;;
37641;SDS011;23486;51.956;5.888;2023-12-07T05:43:45;50.50;;;18.60;;
37641;SDS011;23486;51.956;5.888;2023-12-07T05:46:11;57.13;;;19.13;;
37641;SDS011;23486;51.956;5.888;2023-12-07T05:48:37;45.70;;;20.67;;
37641;SDS011;23486;51.956;5.888;2023-12-07T05:51:03;45.60;;;18.00;;
37641;SDS011;23486;51.956;5.888;2023-12-07T05:53:29;33.92;;;17.92;;
37641;SDS011;23486;51.956;5.888;2023-12-07T05:55:55;42.97;;;18.83;;
37641;SDS011;23486;51.956;5.888;2023-12-07T05:58:20;39.95;;;17.45;;
37641;SDS011;23486;51.956;5.888;2023-12-07T06:00:46;64.97;;;19.35;;
37641;SDS011;23486;51.956;5.888;2023-12-07T06:03:12;39.80;;;16.60;;
37641;SDS011;23486;51.956;5.888;2023-12-07T06:05:38;39.25;;;18.08;;
37641;SDS011;23486;51.956;5.888;2023-12-07T06:08:04;44.40;;;16.75;;
37641;SDS011;23486;51.956;5.888;2023-12-07T06:10:30;38.97;;;17.67;;
37641;SDS011;23486;51.956;5.888;2023-12-07T06:12:56;35.03;;;16.50;;
37641;SDS011;23486;51.956;5.888;2023-12-07T06:15:23;33.45;;;16.55;;
37641;SDS011;23486;51.956;5.888;2023-12-07T06:17:49;40.65;;;17.75;;
37641;SDS011;23486;51.956;5.888;2023-12-07T06:20:14;52.80;;;17.98;;
37641;SDS011;23486;51.956;5.888;2023-12-07T06:22:40;39.08;;;17.17;;
37641;SDS011;23486;51.956;5.888;2023-12-07T06:25:06;51.60;;;18.33;;
37641;SDS011;23486;51.956;5.888;2023-12-07T06:27:33;43.00;;;17.23;;
37641;SDS011;23486;51.956;5.888;2023-12-07T06:30:00;40.05;;;17.55;;
37641;SDS011;23486;51.956;5.888;2023-12-07T06:32:25;44.65;;;20.00;;
37641;SDS011;23486;51.956;5.888;2023-12-07T06:34:51;53.95;;;19.88;;
37641;SDS011;23486;51.956;5.888;2023-12-07T06:37:17;49.75;;;22.42;;
37641;SDS011;23486;51.956;5.888;2023-12-07T06:39:42;53.90;;;22.15;;
37641;SDS011;23486;51.956;5.888;2023-12-07T06:42:08;68.68;;;21.13;;
37641;SDS011;23486;51.956;5.888;2023-12-07T06:44:34;42.10;;;19.95;;
37641;SDS011;23486;51.956;5.888;2023-12-07T06:47:00;42.50;;;19.10;;
37641;SDS011;23486;51.956;5.888;2023-12-07T06:49:28;53.70;;;17.85;;
37641;SDS011;23486;51.956;5.888;2023-12-07T06:51:53;50.33;;;19.70;;
37641;SDS011;23486;51.956;5.888;2023-12-07T06:54:19;42.85;;;17.65;;
37641;SDS011;23486;51.956;5.888;2023-12-07T06:56:44;40.28;;;18.35;;
37641;SDS011;23486;51.956;5.888;2023-12-07T06:59:11;54.95;;;20.05;;
37641;SDS011;23486;51.956;5.888;2023-12-07T07:01:36;36.30;;;18.33;;
37641;SDS011;23486;51.956;5.888;2023-12-07T07:04:03;43.80;;;21.33;;
37641;SDS011;23486;51.956;5.888;2023-12-07T07:06:28;44.13;;;19.08;;
37641;SDS011;23486;51.956;5.888;2023-12-07T07:08:54;64.35;;;21.30;;
37641;SDS011;23486;51.956;5.888;2023-12-07T07:11:19;47.08;;;20.20;;
37641;SDS011;23486;51.956;5.888;2023-12-07T07:13:45;45.65;;;18.92;;
37641;SDS011;23486;51.956;5.888;2023-12-07T07:16:11;54.03;;;23.15;;
37641;SDS011;23486;51.956;5.888;2023-12-07T07:18:39;50.10;;;21.98;;
37641;SDS011;23486;51.956;5.888;2023-12-07T07:21:05;52.65;;;21.67;;
37641;SDS011;23486;51.956;5.888;2023-12-07T07:23:32;51.05;;;22.08;;
37641;SDS011;23486;51.956;5.888;2023-12-07T07:25:58;63.78;;;24.58;;
37641;SDS011;23486;51.956;5.888;2023-12-07T07:28:24;50.58;;;21.88;;
37641;SDS011;23486;51.956;5.888;2023-12-07T07:30:49;46.72;;;20.58;;
37641;SDS011;23486;51.956;5.888;2023-12-07T07:33:16;49.97;;;21.45;;
37641;SDS011;23486;51.956;5.888;2023-12-07T07:35:42;36.13;;;19.95;;
37641;SDS011;23486;51.956;5.888;2023-12-07T07:38:07;49.42;;;20.05;;
37641;SDS011;23486;51.956;5.888;2023-12-07T07:40:33;53.85;;;22.70;;
37641;SDS011;23486;51.956;5.888;2023-12-07T07:42:59;49.70;;;21.40;;
37641;SDS011;23486;51.956;5.888;2023-12-07T07:45:24;42.53;;;22.80;;
37641;SDS011;23486;51.956;5.888;2023-12-07T07:47:50;54.22;;;23.48;;
37641;SDS011;23486;51.956;5.888;2023-12-07T07:50:16;49.28;;;22.42;;
37641;SDS011;23486;51.956;5.888;2023-12-07T07:52:42;50.90;;;22.90;;
37641;SDS011;23486;51.956;5.888;2023-12-07T07:55:08;57.58;;;22.98;;
37641;SDS011;23486;51.956;5.888;2023-12-07T07:57:35;52.70;;;23.05;;
37641;SDS011;23486;51.956;5.888;2023-12-07T08:00:00;59.92;;;23.98;;
37641;SDS011;23486;51.956;5.888;2023-12-07T08:02:26;65.55;;;23.27;;
37641;SDS011;23486;51.956;5.888;2023-12-07T08:04:52;48.35;;;22.17;;
37641;SDS011;23486;51.956;5.888;2023-12-07T08:07:17;47.63;;;22.02;;
37641;SDS011;23486;51.956;5.888;2023-12-07T08:09:43;53.75;;;23.02;;
37641;SDS011;23486;51.956;5.888;2023-12-07T08:12:09;54.85;;;22.83;;
37641;SDS011;23486;51.956;5.888;2023-12-07T08:14:35;55.88;;;22.75;;
37641;SDS011;23486;51.956;5.888;2023-12-07T08:17:01;39.63;;;20.63;;
37641;SDS011;23486;51.956;5.888;2023-12-07T08:19:28;52.95;;;22.75;;
37641;SDS011;23486;51.956;5.888;2023-12-07T08:21:53;55.55;;;22.55;;
37641;SDS011;23486;51.956;5.888;2023-12-07T08:24:19;41.05;;;19.52;;
37641;SDS011;23486;51.956;5.888;2023-12-07T08:26:44;38.95;;;20.85;;
37641;SDS011;23486;51.956;5.888;2023-12-07T08:29:10;42.80;;;21.60;;
37641;SDS011;23486;51.956;5.888;2023-12-07T08:31:35;58.03;;;21.42;;
37641;SDS011;23486;51.956;5.888;2023-12-07T08:34:01;51.75;;;21.42;;
37641;SDS011;23486;51.956;5.888;2023-12-07T08:36:26;47.30;;;20.60;;
37641;SDS011;23486;51.956;5.888;2023-12-07T08:38:53;42.22;;;20.73;;
37641;SDS011;23486;51.956;5.888;2023-12-07T08:41:19;43.28;;;20.40;;
37641;SDS011;23486;51.956;5.888;2023-12-07T08:43:45;82.63;;;23.60;;
37641;SDS011;23486;51.956;5.888;2023-12-07T08:46:10;55.33;;;19.98;;
37641;SDS011;23486;51.956;5.888;2023-12-07T08:48:36;44.15;;;20.05;;
37641;SDS011;23486;51.956;5.888;2023-12-07T08:51:03;45.55;;;20.35;;
37641;SDS011;23486;51.956;5.888;2023-12-07T08:53:28;48.13;;;18.85;;
37641;SDS011;23486;51.956;5.888;2023-12-07T08:55:54;49.75;;;19.33;;
37641;SDS011;23486;51.956;5.888;2023-12-07T08:58:20;48.55;;;19.27;;
37641;SDS011;23486;51.956;5.888;2023-12-07T09:00:46;46.85;;;19.30;;
37641;SDS011;23486;51.956;5.888;2023-12-07T09:03:11;53.50;;;18.95;;
37641;SDS011;23486;51.956;5.888;2023-12-07T09:05:38;48.13;;;17.92;;
37641;SDS011;23486;51.956;5.888;2023-12-07T09:08:04;45.35;;;17.13;;
37641;SDS011;23486;51.956;5.888;2023-12-07T09:10:32;46.00;;;17.42;;
37641;SDS011;23486;51.956;5.888;2023-12-07T09:12:58;50.83;;;16.48;;
37641;SDS011;23486;51.956;5.888;2023-12-07T09:15:23;39.75;;;16.30;;
37641;SDS011;23486;51.956;5.888;2023-12-07T09:17:49;59.30;;;18.15;;
37641;SDS011;23486;51.956;5.888;2023-12-07T09:20:14;51.60;;;15.50;;
37641;SDS011;23486;51.956;5.888;2023-12-07T09:22:41;43.30;;;14.63;;
37641;SDS011;23486;51.956;5.888;2023-12-07T09:25:11;49.58;;;17.00;;
37641;SDS011;23486;51.956;5.888;2023-12-07T09:27:38;44.78;;;16.48;;
37641;SDS011;23486;51.956;5.888;2023-12-07T09:30:05;37.70;;;15.05;;
37641;SDS011;23486;51.956;5.888;2023-12-07T09:32:32;41.35;;;16.08;;
37641;SDS011;23486;51.956;5.888;2023-12-07T09:35:03;40.97;;;15.88;;
37641;SDS011;23486;51.956;5.888;2023-12-07T09:37:31;37.97;;;15.85;;
37641;SDS011;23486;51.956;5.888;2023-12-07T09:39:56;40.72;;;16.52;;
37641;SDS011;23486;51.956;5.888;2023-12-07T09:42:23;34.65;;;13.60;;
37641;SDS011;23486;51.956;5.888;2023-12-07T09:44:49;38.90;;;14.57;;
37641;SDS011;23486;51.956;5.888;2023-12-07T09:47:14;31.38;;;12.93;;
37641;SDS011;23486;51.956;5.888;2023-12-07T09:49:41;31.05;;;12.38;;
37641;SDS011;23486;51.956;5.888;2023-12-07T09:52:07;32.08;;;11.20;;
37641;SDS011;23486;51.956;5.888;2023-12-07T09:54:33;26.80;;;11.23;;
37641;SDS011;23486;51.956;5.888;2023-12-07T09:57:00;26.60;;;10.18;;
37641;SDS011;23486;51.956;5.888;2023-12-07T09:59:28;29.83;;;11.55;;
37641;SDS011;23486;51.956;5.888;2023-12-07T10:01:54;28.17;;;11.07;;
37641;SDS011;23486;51.956;5.888;2023-12-07T10:04:20;33.75;;;11.60;;
37641;SDS011;23486;51.956;5.888;2023-12-07T10:06:51;29.33;;;10.57;;
37641;SDS011;23486;51.956;5.888;2023-12-07T10:09:17;30.70;;;12.90;;
37641;SDS011;23486;51.956;5.888;2023-12-07T10:11:44;36.75;;;12.57;;
37641;SDS011;23486;51.956;5.888;2023-12-07T10:14:10;32.47;;;11.43;;
37641;SDS011;23486;51.956;5.888;2023-12-07T10:16:36;34.17;;;11.98;;
37641;SDS011;23486;51.956;5.888;2023-12-07T10:19:14;29.98;;;11.32;;
37641;SDS011;23486;51.956;5.888;2023-12-07T10:21:42;34.25;;;11.57;;
37641;SDS011;23486;51.956;5.888;2023-12-07T10:24:09;26.95;;;10.50;;
37641;SDS011;23486;51.956;5.888;2023-12-07T10:26:35;28.52;;;10.65;;
37641;SDS011;23486;51.956;5.888;2023-12-07T10:29:02;27.65;;;9.70;;
37641;SDS011;23486;51.956;5.888;2023-12-07T10:31:31;32.88;;;12.00;;
37641;SDS011;23486;51.956;5.888;2023-12-07T10:33:58;35.22;;;11.18;;
37641;SDS011;23486;51.956;5.888;2023-12-07T10:36:24;37.83;;;12.50;;
37641;SDS011;23486;51.956;5.888;2023-12-07T10:38:51;37.60;;;12.05;;
37641;SDS011;23486;51.956;5.888;2023-12-07T10:41:17;35.83;;;12.45;;
37641;SDS011;23486;51.956;5.888;2023-12-07T10:43:44;38.05;;;12.40;;
37641;SDS011;23486;51.956;5.888;2023-12-07T10:46:14;36.25;;;10.68;;
37641;SDS011;23486;51.956;5.888;2023-12-07T10:48:47;43.55;;;10.65;;
37641;SDS011;23486;51.956;5.888;2023-12-07T10:51:17;38.22;;;10.73;;
37641;SDS011;23486;51.956;5.888;2023-12-07T10:53:48;49.85;;;12.60;;
37641;SDS011;23486;51.956;5.888;2023-12-07T10:56:16;44.97;;;13.35;;
37641;SDS011;23486;51.956;5.888;2023-12-07T10:58:54;48.38;;;12.05;;
37641;SDS011;23486;51.956;5.888;2023-12-07T11:01:22;44.83;;;11.77;;
37641;SDS011;23486;51.956;5.888;2023-12-07T11:03:51;51.92;;;14.68;;
37641;SDS011;23486;51.956;5.888;2023-12-07T11:06:18;49.17;;;13.77;;
37641;SDS011;23486;51.956;5.888;2023-12-07T11:08:50;49.10;;;12.65;;
37641;SDS011;23486;51.956;5.888;2023-12-07T11:13:58;58.22;;;15.55;;
37641;SDS011;23486;51.956;5.888;2023-12-07T11:16:31;52.97;;;15.10;;
37641;SDS011;23486;51.956;5.888;2023-12-07T11:19:00;53.30;;;16.25;;
37641;SDS011;23486;51.956;5.888;2023-12-07T11:21:26;53.88;;;15.75;;
37641;SDS011;23486;51.956;5.888;2023-12-07T11:23:53;57.90;;;15.27;;
37641;SDS011;23486;51.956;5.888;2023-12-07T11:26:22;53.53;;;15.20;;
37641;SDS011;23486;51.956;5.888;2023-12-07T11:28:49;53.97;;;16.58;;
37641;SDS011;23486;51.956;5.888;2023-12-07T11:31:15;63.15;;;16.35;;
37641;SDS011;23486;51.956;5.888;2023-12-07T11:33:41;56.45;;;15.98;;
37641;SDS011;23486;51.956;5.888;2023-12-07T11:36:08;67.20;;;18.08;;
37641;SDS011;23486;51.956;5.888;2023-12-07T11:38:38;67.22;;;19.10;;
37641;SDS011;23486;51.956;5.888;2023-12-07T11:41:23;68.75;;;20.02;;
37641;SDS011;23486;51.956;5.888;2023-12-07T11:43:49;78.80;;;20.23;;
37641;SDS011;23486;51.956;5.888;2023-12-07T11:46:18;59.17;;;18.33;;
37641;SDS011;23486;51.956;5.888;2023-12-07T11:48:47;75.05;;;20.95;;
37641;SDS011;23486;51.956;5.888;2023-12-07T11:51:13;66.53;;;20.38;;
37641;SDS011;23486;51.956;5.888;2023-12-07T11:53:40;79.32;;;21.00;;
37641;SDS011;23486;51.956;5.888;2023-12-07T11:56:06;76.82;;;22.60;;
37641;SDS011;23486;51.956;5.888;2023-12-07T11:58:35;73.78;;;20.88;;
37641;SDS011;23486;51.956;5.888;2023-12-07T12:01:01;74.93;;;21.20;;
37641;SDS011;23486;51.956;5.888;2023-12-07T12:03:28;73.47;;;21.45;;
37641;SDS011;23486;51.956;5.888;2023-12-07T12:05:57;65.35;;;20.67;;
37641;SDS011;23486;51.956;5.888;2023-12-07T12:08:23;69.47;;;22.25;;
37641;SDS011;23486;51.956;5.888;2023-12-07T12:10:51;80.47;;;22.92;;
37641;SDS011;23486;51.956;5.888;2023-12-07T12:13:25;73.13;;;22.92;;
37641;SDS011;23486;51.956;5.888;2023-12-07T12:15:58;76.57;;;23.38;;
37641;SDS011;23486;51.956;5.888;2023-12-07T12:18:25;70.40;;;22.48;;
37641;SDS011;23486;51.956;5.888;2023-12-07T12:20:51;65.07;;;23.50;;
37641;SDS011;23486;51.956;5.888;2023-12-07T12:23:17;69.07;;;22.88;;
37641;SDS011;23486;51.956;5.888;2023-12-07T12:25:43;78.15;;;23.27;;
37641;SDS011;23486;51.956;5.888;2023-12-07T12:28:10;76.93;;;24.13;;
37641;SDS011;23486;51.956;5.888;2023-12-07T12:30:36;80.57;;;26.38;;
37641;SDS011;23486;51.956;5.888;2023-12-07T12:33:03;79.90;;;23.15;;
37641;SDS011;23486;51.956;5.888;2023-12-07T12:35:29;71.03;;;23.88;;
37641;SDS011;23486;51.956;5.888;2023-12-07T12:37:54;73.25;;;23.13;;
37641;SDS011;23486;51.956;5.888;2023-12-07T12:40:20;73.18;;;23.25;;
37641;SDS011;23486;51.956;5.888;2023-12-07T12:42:48;71.57;;;23.80;;
37641;SDS011;23486;51.956;5.888;2023-12-07T12:45:15;75.35;;;24.83;;
37641;SDS011;23486;51.956;5.888;2023-12-07T12:47:43;83.03;;;27.15;;
37641;SDS011;23486;51.956;5.888;2023-12-07T12:50:10;72.72;;;24.05;;
37641;SDS011;23486;51.956;5.888;2023-12-07T12:52:36;71.80;;;24.58;;
37641;SDS011;23486;51.956;5.888;2023-12-07T12:55:08;73.22;;;22.27;;
37641;SDS011;23486;51.956;5.888;2023-12-07T12:57:35;74.25;;;24.80;;
37641;SDS011;23486;51.956;5.888;2023-12-07T13:00:01;70.25;;;22.73;;
37641;SDS011;23486;51.956;5.888;2023-12-07T13:02:27;66.05;;;23.20;;
37641;SDS011;23486;51.956;5.888;2023-12-07T13:04:53;69.47;;;21.33;;
37641;SDS011;23486;51.956;5.888;2023-12-07T13:07:20;63.13;;;22.40;;
37641;SDS011;23486;51.956;5.888;2023-12-07T13:09:49;68.03;;;23.00;;
37641;SDS011;23486;51.956;5.888;2023-12-07T13:12:15;70.20;;;24.42;;
37641;SDS011;23486;51.956;5.888;2023-12-07T13:14:40;64.45;;;22.13;;
37641;SDS011;23486;51.956;5.888;2023-12-07T13:17:06;64.65;;;23.70;;
37641;SDS011;23486;51.956;5.888;2023-12-07T13:19:35;74.70;;;25.65;;
37641;SDS011;23486;51.956;5.888;2023-12-07T13:22:01;74.20;;;25.63;;
37641;SDS011;23486;51.956;5.888;2023-12-07T13:24:28;73.22;;;24.27;;
37641;SDS011;23486;51.956;5.888;2023-12-07T13:26:54;69.10;;;23.92;;
37641;SDS011;23486;51.956;5.888;2023-12-07T13:29:21;68.95;;;23.55;;
37641;SDS011;23486;51.956;5.888;2023-12-07T13:31:48;78.63;;;27.48;;
37641;SDS011;23486;51.956;5.888;2023-12-07T13:34:14;91.85;;;29.02;;
37641;SDS011;23486;51.956;5.888;2023-12-07T13:36:40;85.82;;;29.15;;
37641;SDS011;23486;51.956;5.888;2023-12-07T13:39:05;83.07;;;29.38;;
37641;SDS011;23486;51.956;5.888;2023-12-07T13:41:33;88.38;;;31.02;;
37641;SDS011;23486;51.956;5.888;2023-12-07T13:43:59;85.50;;;29.13;;
37641;SDS011;23486;51.956;5.888;2023-12-07T13:46:26;84.63;;;28.33;;
37641;SDS011;23486;51.956;5.888;2023-12-07T13:48:52;87.03;;;31.08;;
37641;SDS011;23486;51.956;5.888;2023-12-07T13:51:17;80.47;;;29.13;;
37641;SDS011;23486;51.956;5.888;2023-12-07T13:53:43;91.25;;;31.55;;
37641;SDS011;23486;51.956;5.888;2023-12-07T13:56:09;85.60;;;31.42;;
37641;SDS011;23486;51.956;5.888;2023-12-07T13:58:34;88.18;;;30.13;;
37641;SDS011;23486;51.956;5.888;2023-12-07T14:01:00;83.47;;;29.58;;
37641;SDS011;23486;51.956;5.888;2023-12-07T14:03:26;76.55;;;28.65;;
37641;SDS011;23486;51.956;5.888;2023-12-07T14:05:52;73.18;;;27.63;;
37641;SDS011;23486;51.956;5.888;2023-12-07T14:08:18;76.38;;;28.77;;
37641;SDS011;23486;51.956;5.888;2023-12-07T14:10:46;73.60;;;28.40;;
37641;SDS011;23486;51.956;5.888;2023-12-07T14:13:12;71.28;;;28.40;;
37641;SDS011;23486;51.956;5.888;2023-12-07T14:15:38;71.97;;;27.35;;
37641;SDS011;23486;51.956;5.888;2023-12-07T14:18:03;77.72;;;28.55;;
37641;SDS011;23486;51.956;5.888;2023-12-07T14:20:29;63.20;;;27.15;;
37641;SDS011;23486;51.956;5.888;2023-12-07T14:22:56;64.80;;;27.27;;